sensor_id;sensor_type;location;lat;lon;timestamp;pressure;altitude;pressure_sealevel;temperature;humidity
84055;BME280;74141;51.504;7.122;2024-02-26T00:01:14;99295.59;;;6.30;78.22
84055;BME280;74141;51.504;7.122;2024-02-26T00:03:39;99290.09;;;6.36;78.17
84055;BME280;74141;51.504;7.122;2024-02-26T00:06:07;99281.72;;;6.28;78.05
84055;BME280;74141;51.504;7.122;2024-02-26T00:08:32;99281.84;;;6.24;78.54
84055;BME280;74141;51.504;7.122;2024-02-26T00:10:57;99281.09;;;6.22;78.37
84055;BME280;74141;51.504;7.122;2024-02-26T00:13:23;99279.31;;;6.23;78.38
84055;BME280;74141;51.504;7.122;2024-02-26T00:15:48;99282.72;;;6.25;78.09
84055;BME280;74141;51.504;7.122;2024-02-26T00:18:13;99278.22;;;6.29;77.94
84055;BME280;74141;51.504;7.122;2024-02-26T00:20:38;99277.75;;;6.19;78.64
84055;BME280;74141;51.504;7.122;2024-02-26T00:23:05;99271.03;;;6.13;78.78
84055;BME280;74141;51.504;7.122;2024-02-26T00:25:30;99286.66;;;6.15;78.85
84055;BME280;74141;51.504;7.122;2024-02-26T00:27:55;99295.59;;;6.09;80.10
84055;BME280;74141;51.504;7.122;2024-02-26T00:30:21;99289.88;;;6.01;80.73
84055;BME280;74141;51.504;7.122;2024-02-26T00:32:47;99283.84;;;5.99;81.49
84055;BME280;74141;51.504;7.122;2024-02-26T00:35:13;99285.19;;;5.89;81.48
84055;BME280;74141;51.504;7.122;2024-02-26T00:37:39;99289.63;;;5.87;82.27
84055;BME280;74141;51.504;7.122;2024-02-26T00:40:05;99283.78;;;5.81;82.59
84055;BME280;74141;51.504;7.122;2024-02-26T00:42:31;99285.75;;;5.76;83.07
84055;BME280;74141;51.504;7.122;2024-02-26T00:44:56;99282.44;;;5.72;83.28
84055;BME280;74141;51.504;7.122;2024-02-26T00:47:22;99285.88;;;5.73;82.37
84055;BME280;74141;51.504;7.122;2024-02-26T00:49:47;99273.34;;;5.81;81.92
84055;BME280;74141;51.504;7.122;2024-02-26T00:52:12;99279.22;;;5.86;81.12
84055;BME280;74141;51.504;7.122;2024-02-26T00:54:38;99279.16;;;5.87;80.80
84055;BME280;74141;51.504;7.122;2024-02-26T00:57:03;99276.34;;;5.92;80.89
84055;BME280;74141;51.504;7.122;2024-02-26T00:59:28;99283.22;;;5.94;80.33
84055;BME280;74141;51.504;7.122;2024-02-26T01:01:53;99283.09;;;5.97;80.14
84055;BME280;74141;51.504;7.122;2024-02-26T01:04:19;99265.97;;;5.90;80.04
84055;BME280;74141;51.504;7.122;2024-02-26T01:06:44;99273.59;;;5.95;80.00
84055;BME280;74141;51.504;7.122;2024-02-26T01:09:09;99272.50;;;6.00;79.99
84055;BME280;74141;51.504;7.122;2024-02-26T01:11:34;99266.34;;;6.01;80.00
84055;BME280;74141;51.504;7.122;2024-02-26T01:14:00;99261.34;;;5.97;80.12
84055;BME280;74141;51.504;7.122;2024-02-26T01:16:25;99261.91;;;6.03;79.50
84055;BME280;74141;51.504;7.122;2024-02-26T01:18:50;99256.75;;;6.02;79.28
84055;BME280;74141;51.504;7.122;2024-02-26T01:21:16;99253.16;;;6.04;79.20
84055;BME280;74141;51.504;7.122;2024-02-26T01:23:41;99263.69;;;6.03;79.14
84055;BME280;74141;51.504;7.122;2024-02-26T01:26:07;99267.91;;;6.05;79.26
84055;BME280;74141;51.504;7.122;2024-02-26T01:28:32;99267.78;;;6.08;79.39
84055;BME280;74141;51.504;7.122;2024-02-26T01:30:58;99283.59;;;6.05;79.03
84055;BME280;74141;51.504;7.122;2024-02-26T01:33:26;99280.06;;;6.06;79.77
84055;BME280;74141;51.504;7.122;2024-02-26T01:35:51;99280.28;;;6.02;79.64
84055;BME280;74141;51.504;7.122;2024-02-26T01:38:16;99279.16;;;6.07;79.94
84055;BME280;74141;51.504;7.122;2024-02-26T01:40:42;99293.13;;;6.06;79.34
84055;BME280;74141;51.504;7.122;2024-02-26T01:43:07;99281.78;;;6.07;79.83
84055;BME280;74141;51.504;7.122;2024-02-26T01:45:32;99272.22;;;6.06;79.67
84055;BME280;74141;51.504;7.122;2024-02-26T01:47:57;99278.38;;;6.05;79.14
84055;BME280;74141;51.504;7.122;2024-02-26T01:50:23;99279.16;;;6.07;79.67
84055;BME280;74141;51.504;7.122;2024-02-26T01:52:50;99280.97;;;6.05;79.74
84055;BME280;74141;51.504;7.122;2024-02-26T01:55:17;99277.44;;;6.06;79.23
84055;BME280;74141;51.504;7.122;2024-02-26T01:57:44;99273.78;;;6.10;79.03
84055;BME280;74141;51.504;7.122;2024-02-26T02:00:14;99275.75;;;6.05;79.38
84055;BME280;74141;51.504;7.122;2024-02-26T02:02:41;99275.75;;;6.05;79.41
84055;BME280;74141;51.504;7.122;2024-02-26T02:05:14;99282.66;;;6.06;79.05
84055;BME280;74141;51.504;7.122;2024-02-26T02:07:41;99274.88;;;6.05;79.12
84055;BME280;74141;51.504;7.122;2024-02-26T02:10:12;99271.38;;;6.06;79.22
84055;BME280;74141;51.504;7.122;2024-02-26T02:12:38;99280.13;;;6.05;79.26
84055;BME280;74141;51.504;7.122;2024-02-26T02:15:13;99281.72;;;6.09;78.96
84055;BME280;74141;51.504;7.122;2024-02-26T02:17:39;99286.22;;;6.05;79.04
84055;BME280;74141;51.504;7.122;2024-02-26T02:20:17;99281.91;;;6.04;79.08
84055;BME280;74141;51.504;7.122;2024-02-26T02:22:44;99274.25;;;6.00;79.18
84055;BME280;74141;51.504;7.122;2024-02-26T02:25:13;99280.84;;;6.08;79.27
84055;BME280;74141;51.504;7.122;2024-02-26T02:27:39;99279.16;;;6.07;78.44
84055;BME280;74141;51.504;7.122;2024-02-26T02:30:14;99284.38;;;6.07;78.77
84055;BME280;74141;51.504;7.122;2024-02-26T02:32:41;99287.06;;;6.06;78.66
84055;BME280;74141;51.504;7.122;2024-02-26T02:35:13;99285.66;;;6.17;77.58
84055;BME280;74141;51.504;7.122;2024-02-26T02:37:38;99284.69;;;6.20;77.84
84055;BME280;74141;51.504;7.122;2024-02-26T02:40:12;99295.00;;;6.23;77.79
84055;BME280;74141;51.504;7.122;2024-02-26T02:42:37;99294.44;;;6.16;77.86
84055;BME280;74141;51.504;7.122;2024-02-26T02:45:12;99297.06;;;6.16;78.34
84055;BME280;74141;51.504;7.122;2024-02-26T02:47:37;99299.59;;;6.18;77.82
84055;BME280;74141;51.504;7.122;2024-02-26T02:50:11;99299.41;;;6.22;77.32
84055;BME280;74141;51.504;7.122;2024-02-26T02:52:37;99291.50;;;6.24;77.17
84055;BME280;74141;51.504;7.122;2024-02-26T02:55:12;99286.94;;;6.28;77.36
84055;BME280;74141;51.504;7.122;2024-02-26T02:57:37;99294.09;;;6.24;77.43
84055;BME280;74141;51.504;7.122;2024-02-26T03:00:08;99293.03;;;6.28;77.31
84055;BME280;74141;51.504;7.122;2024-02-26T03:02:33;99295.84;;;6.23;77.55
84055;BME280;74141;51.504;7.122;2024-02-26T03:05:01;99294.03;;;6.26;77.83
84055;BME280;74141;51.504;7.122;2024-02-26T03:07:26;99295.84;;;6.23;77.60
84055;BME280;74141;51.504;7.122;2024-02-26T03:09:51;99302.22;;;6.18;78.16
84055;BME280;74141;51.504;7.122;2024-02-26T03:12:17;99302.84;;;6.23;77.75
84055;BME280;74141;51.504;7.122;2024-02-26T03:14:43;99308.13;;;6.21;77.88
84055;BME280;74141;51.504;7.122;2024-02-26T03:17:08;99305.53;;;6.21;77.81
84055;BME280;74141;51.504;7.122;2024-02-26T03:19:33;99317.91;;;6.18;78.28
84055;BME280;74141;51.504;7.122;2024-02-26T03:21:59;99315.09;;;6.22;77.65
84055;BME280;74141;51.504;7.122;2024-02-26T03:24:24;99318.41;;;6.26;77.65
84055;BME280;74141;51.504;7.122;2024-02-26T03:26:49;99321.22;;;6.21;78.44
84055;BME280;74141;51.504;7.122;2024-02-26T03:29:16;99317.72;;;6.22;78.42
84055;BME280;74141;51.504;7.122;2024-02-26T03:31:41;99320.47;;;6.19;79.30
84055;BME280;74141;51.504;7.122;2024-02-26T03:34:06;99318.88;;;6.15;79.86
84055;BME280;74141;51.504;7.122;2024-02-26T03:36:31;99320.72;;;6.13;79.87
84055;BME280;74141;51.504;7.122;2024-02-26T03:38:56;99319.34;;;6.05;80.98
84055;BME280;74141;51.504;7.122;2024-02-26T03:41:22;99317.59;;;6.05;81.04
84055;BME280;74141;51.504;7.122;2024-02-26T03:43:47;99309.25;;;5.97;82.03
84055;BME280;74141;51.504;7.122;2024-02-26T03:46:12;99313.00;;;5.90;81.67
84055;BME280;74141;51.504;7.122;2024-02-26T03:48:42;99308.03;;;5.84;82.91
84055;BME280;74141;51.504;7.122;2024-02-26T03:51:08;99315.47;;;5.73;84.23
84055;BME280;74141;51.504;7.122;2024-02-26T03:53:35;99303.13;;;5.57;86.95
84055;BME280;74141;51.504;7.122;2024-02-26T03:56:05;99311.28;;;5.49;86.74
84055;BME280;74141;51.504;7.122;2024-02-26T03:58:30;99299.69;;;5.35;88.35
84055;BME280;74141;51.504;7.122;2024-02-26T04:00:55;99299.75;;;5.33;88.61
84055;BME280;74141;51.504;7.122;2024-02-26T04:03:21;99304.00;;;5.36;87.83
84055;BME280;74141;51.504;7.122;2024-02-26T04:05:46;99298.97;;;5.31;89.57
84055;BME280;74141;51.504;7.122;2024-02-26T04:08:12;99317.38;;;5.28;89.16
84055;BME280;74141;51.504;7.122;2024-02-26T04:10:37;99313.97;;;5.26;88.38
84055;BME280;74141;51.504;7.122;2024-02-26T04:13:04;99303.41;;;5.29;88.71
84055;BME280;74141;51.504;7.122;2024-02-26T04:15:30;99289.00;;;5.19;89.94
84055;BME280;74141;51.504;7.122;2024-02-26T04:17:55;99297.72;;;5.20;89.90
84055;BME280;74141;51.504;7.122;2024-02-26T04:20:21;99300.19;;;5.23;90.22
84055;BME280;74141;51.504;7.122;2024-02-26T04:22:47;99290.50;;;5.26;90.11
84055;BME280;74141;51.504;7.122;2024-02-26T04:25:12;99295.16;;;5.18;91.24
84055;BME280;74141;51.504;7.122;2024-02-26T04:27:38;99304.84;;;5.15;90.45
84055;BME280;74141;51.504;7.122;2024-02-26T04:30:04;99298.06;;;5.11;91.31
84055;BME280;74141;51.504;7.122;2024-02-26T04:32:30;99306.16;;;5.05;91.56
84055;BME280;74141;51.504;7.122;2024-02-26T04:34:55;99304.41;;;5.05;91.96
84055;BME280;74141;51.504;7.122;2024-02-26T04:37:20;99298.44;;;5.02;92.52
84055;BME280;74141;51.504;7.122;2024-02-26T04:39:46;99301.53;;;5.11;91.03
84055;BME280;74141;51.504;7.122;2024-02-26T04:42:11;99295.59;;;5.08;91.88
84055;BME280;74141;51.504;7.122;2024-02-26T04:44:36;99309.50;;;5.08;91.90
84055;BME280;74141;51.504;7.122;2024-02-26T04:47:01;99304.56;;;5.01;92.39
84055;BME280;74141;51.504;7.122;2024-02-26T04:49:27;99314.84;;;5.05;91.99
84055;BME280;74141;51.504;7.122;2024-02-26T04:51:52;99323.47;;;5.07;92.29
84055;BME280;74141;51.504;7.122;2024-02-26T04:54:18;99331.53;;;5.01;93.16
84055;BME280;74141;51.504;7.122;2024-02-26T04:56:43;99335.91;;;5.01;93.78
84055;BME280;74141;51.504;7.122;2024-02-26T04:59:09;99341.06;;;5.02;93.18
84055;BME280;74141;51.504;7.122;2024-02-26T05:01:34;99333.41;;;4.98;94.29
84055;BME280;74141;51.504;7.122;2024-02-26T05:04:01;99341.16;;;4.99;94.16
84055;BME280;74141;51.504;7.122;2024-02-26T05:06:28;99339.47;;;4.98;93.83
84055;BME280;74141;51.504;7.122;2024-02-26T05:08:53;99346.50;;;4.96;94.31
84055;BME280;74141;51.504;7.122;2024-02-26T05:11:18;99346.56;;;4.95;94.42
84055;BME280;74141;51.504;7.122;2024-02-26T05:13:44;99344.81;;;4.95;94.63
84055;BME280;74141;51.504;7.122;2024-02-26T05:16:10;99342.97;;;4.97;94.72
84055;BME280;74141;51.504;7.122;2024-02-26T05:18:35;99351.72;;;4.96;94.65
84055;BME280;74141;51.504;7.122;2024-02-26T05:21:01;99345.88;;;4.90;94.93
84055;BME280;74141;51.504;7.122;2024-02-26T05:23:26;99359.78;;;4.90;95.91
84055;BME280;74141;51.504;7.122;2024-02-26T05:25:51;99352.78;;;4.92;95.83
84055;BME280;74141;51.504;7.122;2024-02-26T05:28:17;99354.56;;;4.90;96.08
84055;BME280;74141;51.504;7.122;2024-02-26T05:30:45;99357.31;;;4.87;96.46
84055;BME280;74141;51.504;7.122;2024-02-26T05:33:10;99365.13;;;4.87;96.28
84055;BME280;74141;51.504;7.122;2024-02-26T05:35:36;99366.81;;;4.88;95.99
84055;BME280;74141;51.504;7.122;2024-02-26T05:38:02;99372.84;;;4.90;95.81
84055;BME280;74141;51.504;7.122;2024-02-26T05:40:27;99371.22;;;4.88;96.15
84055;BME280;74141;51.504;7.122;2024-02-26T05:42:52;99379.09;;;4.86;96.88
84055;BME280;74141;51.504;7.122;2024-02-26T05:45:18;99371.25;;;4.86;96.73
84055;BME280;74141;51.504;7.122;2024-02-26T05:47:43;99378.22;;;4.86;96.55
84055;BME280;74141;51.504;7.122;2024-02-26T05:50:09;99380.91;;;4.84;97.09
84055;BME280;74141;51.504;7.122;2024-02-26T05:52:36;99378.28;;;4.84;96.72
84055;BME280;74141;51.504;7.122;2024-02-26T05:55:01;99369.69;;;4.82;97.69
84055;BME280;74141;51.504;7.122;2024-02-26T05:57:27;99384.38;;;4.85;96.67
84055;BME280;74141;51.504;7.122;2024-02-26T05:59:52;99385.19;;;4.85;96.50
84055;BME280;74141;51.504;7.122;2024-02-26T06:02:18;99386.06;;;4.86;96.46
84055;BME280;74141;51.504;7.122;2024-02-26T06:04:43;99379.31;;;4.80;97.96
84055;BME280;74141;51.504;7.122;2024-02-26T06:07:08;99395.53;;;4.88;96.66
84055;BME280;74141;51.504;7.122;2024-02-26T06:09:34;99396.25;;;4.92;96.40
84055;BME280;74141;51.504;7.122;2024-02-26T06:11:59;99401.53;;;4.90;96.69
84055;BME280;74141;51.504;7.122;2024-02-26T06:14:24;99402.34;;;4.92;96.43
84055;BME280;74141;51.504;7.122;2024-02-26T06:16:49;99397.00;;;4.95;95.37
84055;BME280;74141;51.504;7.122;2024-02-26T06:19:15;99402.22;;;4.95;96.05
84055;BME280;74141;51.504;7.122;2024-02-26T06:21:40;99411.75;;;4.96;95.59
84055;BME280;74141;51.504;7.122;2024-02-26T06:24:05;99420.38;;;4.98;95.25
84055;BME280;74141;51.504;7.122;2024-02-26T06:26:31;99416.06;;;4.97;96.80
84055;BME280;74141;51.504;7.122;2024-02-26T06:28:58;99419.47;;;4.99;96.05
84055;BME280;74141;51.504;7.122;2024-02-26T06:31:23;99419.47;;;4.99;95.24
84055;BME280;74141;51.504;7.122;2024-02-26T06:33:49;99404.78;;;4.97;96.02
84055;BME280;74141;51.504;7.122;2024-02-26T06:36:15;99415.81;;;5.03;95.61
84055;BME280;74141;51.504;7.122;2024-02-26T06:38:41;99425.44;;;5.03;95.68
84055;BME280;74141;51.504;7.122;2024-02-26T06:41:06;99421.16;;;5.00;95.89
84055;BME280;74141;51.504;7.122;2024-02-26T06:43:31;99418.53;;;5.00;96.47
84055;BME280;74141;51.504;7.122;2024-02-26T06:45:56;99425.53;;;5.00;96.60
84055;BME280;74141;51.504;7.122;2024-02-26T06:48:23;99421.91;;;5.04;96.22
84055;BME280;74141;51.504;7.122;2024-02-26T06:50:49;99429.69;;;5.05;96.13
84055;BME280;74141;51.504;7.122;2024-02-26T06:53:14;99426.38;;;5.00;96.45
84055;BME280;74141;51.504;7.122;2024-02-26T06:55:39;99419.47;;;4.99;96.97
84055;BME280;74141;51.504;7.122;2024-02-26T06:58:05;99425.53;;;5.00;97.46
84055;BME280;74141;51.504;7.122;2024-02-26T07:00:31;99423.88;;;4.97;97.24
84055;BME280;74141;51.504;7.122;2024-02-26T07:02:56;99424.81;;;4.96;97.42
84055;BME280;74141;51.504;7.122;2024-02-26T07:05:21;99426.38;;;5.00;96.89
84055;BME280;74141;51.504;7.122;2024-02-26T07:07:47;99427.34;;;4.98;97.53
84055;BME280;74141;51.504;7.122;2024-02-26T07:10:12;99427.25;;;5.01;97.35
84055;BME280;74141;51.504;7.122;2024-02-26T07:12:38;99432.50;;;4.99;96.99
84055;BME280;74141;51.504;7.122;2024-02-26T07:15:04;99435.94;;;5.01;97.53
84055;BME280;74141;51.504;7.122;2024-02-26T07:17:30;99434.22;;;5.00;96.97
84055;BME280;74141;51.504;7.122;2024-02-26T07:19:55;99447.13;;;5.03;96.92
84055;BME280;74141;51.504;7.122;2024-02-26T07:22:20;99441.16;;;5.01;97.13
84055;BME280;74141;51.504;7.122;2024-02-26T07:24:46;99458.44;;;5.04;97.16
84055;BME280;74141;51.504;7.122;2024-02-26T07:27:11;99449.69;;;5.05;97.63
84055;BME280;74141;51.504;7.122;2024-02-26T07:29:36;99452.25;;;5.06;96.97
84055;BME280;74141;51.504;7.122;2024-02-26T07:32:02;99462.47;;;5.12;96.72
84055;BME280;74141;51.504;7.122;2024-02-26T07:34:27;99465.06;;;5.12;97.78
84055;BME280;74141;51.504;7.122;2024-02-26T07:36:55;99460.66;;;5.14;97.30
84055;BME280;74141;51.504;7.122;2024-02-26T07:39:20;99460.66;;;5.14;97.21
84055;BME280;74141;51.504;7.122;2024-02-26T07:41:46;99463.09;;;5.19;96.84
84055;BME280;74141;51.504;7.122;2024-02-26T07:44:14;99476.09;;;5.20;96.94
84055;BME280;74141;51.504;7.122;2024-02-26T07:46:40;99486.41;;;5.23;96.32
84055;BME280;74141;51.504;7.122;2024-02-26T07:49:05;99470.75;;;5.23;96.42
84055;BME280;74141;51.504;7.122;2024-02-26T07:51:30;99469.03;;;5.22;97.69
84055;BME280;74141;51.504;7.122;2024-02-26T07:53:55;99476.75;;;5.25;97.02
84055;BME280;74141;51.504;7.122;2024-02-26T07:56:21;99484.59;;;5.25;97.02
84055;BME280;74141;51.504;7.122;2024-02-26T07:58:46;99484.47;;;5.28;97.26
84055;BME280;74141;51.504;7.122;2024-02-26T08:01:14;99487.03;;;5.30;96.30
84055;BME280;74141;51.504;7.122;2024-02-26T08:03:40;99483.69;;;5.26;97.32
84055;BME280;74141;51.504;7.122;2024-02-26T08:06:05;99492.25;;;5.30;97.47
84055;BME280;74141;51.504;7.122;2024-02-26T08:08:30;99490.53;;;5.29;97.19
84055;BME280;74141;51.504;7.122;2024-02-26T08:10:56;99493.00;;;5.33;96.45
84055;BME280;74141;51.504;7.122;2024-02-26T08:13:21;99495.53;;;5.35;96.88
84055;BME280;74141;51.504;7.122;2024-02-26T08:15:47;99493.84;;;5.34;97.37
84055;BME280;74141;51.504;7.122;2024-02-26T08:18:12;99500.72;;;5.36;97.54
84055;BME280;74141;51.504;7.122;2024-02-26T08:20:37;99503.19;;;5.39;96.34
84055;BME280;74141;51.504;7.122;2024-02-26T08:23:03;99492.06;;;5.34;97.18
84055;BME280;74141;51.504;7.122;2024-02-26T08:25:28;99501.44;;;5.40;96.92
84055;BME280;74141;51.504;7.122;2024-02-26T08:27:53;99510.13;;;5.40;96.59
84055;BME280;74141;51.504;7.122;2024-02-26T08:30:19;99504.94;;;5.39;97.17
84055;BME280;74141;51.504;7.122;2024-02-26T08:32:45;99504.91;;;5.40;97.31
84055;BME280;74141;51.504;7.122;2024-02-26T08:35:11;99516.09;;;5.44;96.97
84055;BME280;74141;51.504;7.122;2024-02-26T08:37:36;99515.16;;;5.45;97.10
84055;BME280;74141;51.504;7.122;2024-02-26T08:40:01;99520.34;;;5.46;96.90
84055;BME280;74141;51.504;7.122;2024-02-26T08:42:29;99520.34;;;5.46;97.19
84055;BME280;74141;51.504;7.122;2024-02-26T08:44:54;99516.09;;;5.44;97.46
84055;BME280;74141;51.504;7.122;2024-02-26T08:47:19;99505.41;;;5.50;97.35
84055;BME280;74141;51.504;7.122;2024-02-26T08:49:45;99513.97;;;5.53;97.86
84055;BME280;74141;51.504;7.122;2024-02-26T08:52:10;99510.41;;;5.56;96.73
84055;BME280;74141;51.504;7.122;2024-02-26T08:54:36;99503.69;;;5.49;97.19
84055;BME280;74141;51.504;7.122;2024-02-26T08:57:01;99508.69;;;5.55;96.89
84055;BME280;74141;51.504;7.122;2024-02-26T08:59:27;99510.28;;;5.59;97.35
84055;BME280;74141;51.504;7.122;2024-02-26T09:01:53;99507.84;;;5.54;96.70
84055;BME280;74141;51.504;7.122;2024-02-26T09:04:18;99519.81;;;5.60;96.39
84055;BME280;74141;51.504;7.122;2024-02-26T09:06:43;99513.66;;;5.61;96.82
84055;BME280;74141;51.504;7.122;2024-02-26T09:09:09;99521.31;;;5.65;96.39
84055;BME280;74141;51.504;7.122;2024-02-26T09:11:34;99523.16;;;5.63;96.82
84055;BME280;74141;51.504;7.122;2024-02-26T09:13:59;99523.81;;;5.68;96.69
84055;BME280;74141;51.504;7.122;2024-02-26T09:16:24;99536.00;;;5.69;96.63
84055;BME280;74141;51.504;7.122;2024-02-26T09:18:50;99543.72;;;5.72;95.52
84055;BME280;74141;51.504;7.122;2024-02-26T09:21:15;99547.28;;;5.70;95.46
84055;BME280;74141;51.504;7.122;2024-02-26T09:23:43;99552.38;;;5.73;95.10
84055;BME280;74141;51.504;7.122;2024-02-26T09:26:08;99556.78;;;5.72;95.79
84055;BME280;74141;51.504;7.122;2024-02-26T09:28:34;99549.06;;;5.69;96.75
84055;BME280;74141;51.504;7.122;2024-02-26T09:31:04;99554.16;;;5.72;95.74
84055;BME280;74141;51.504;7.122;2024-02-26T09:33:29;99547.16;;;5.73;96.10
84055;BME280;74141;51.504;7.122;2024-02-26T09:35:54;99544.38;;;5.77;95.15
84055;BME280;74141;51.504;7.122;2024-02-26T09:38:20;99543.56;;;5.75;96.15
84055;BME280;74141;51.504;7.122;2024-02-26T09:40:45;99555.63;;;5.79;96.77
84055;BME280;74141;51.504;7.122;2024-02-26T09:43:14;99559.03;;;5.81;94.60
84055;BME280;74141;51.504;7.122;2024-02-26T09:45:40;99561.53;;;5.84;94.90
84055;BME280;74141;51.504;7.122;2024-02-26T09:48:08;99555.69;;;5.78;94.65
84055;BME280;74141;51.504;7.122;2024-02-26T09:50:35;99562.47;;;5.83;95.30
84055;BME280;74141;51.504;7.122;2024-02-26T09:53:01;99558.19;;;5.81;96.02
84055;BME280;74141;51.504;7.122;2024-02-26T09:55:27;99565.88;;;5.85;95.58
84055;BME280;74141;51.504;7.122;2024-02-26T09:57:53;99558.81;;;5.87;95.10
84055;BME280;74141;51.504;7.122;2024-02-26T10:00:21;99564.91;;;5.88;95.71
84055;BME280;74141;51.504;7.122;2024-02-26T10:02:47;99574.38;;;5.90;95.33
84055;BME280;74141;51.504;7.122;2024-02-26T10:05:16;99568.25;;;5.91;96.16
84055;BME280;74141;51.504;7.122;2024-02-26T10:07:44;99575.06;;;5.95;96.43
84055;BME280;74141;51.504;7.122;2024-02-26T10:10:09;99572.44;;;5.95;94.95
84055;BME280;74141;51.504;7.122;2024-02-26T10:12:35;99574.94;;;5.98;95.92
84055;BME280;74141;51.504;7.122;2024-02-26T10:15:00;99582.59;;;6.03;95.92
84055;BME280;74141;51.504;7.122;2024-02-26T10:17:26;99582.53;;;6.04;96.04
84055;BME280;74141;51.504;7.122;2024-02-26T10:19:52;99574.75;;;6.03;96.55
84055;BME280;74141;51.504;7.122;2024-02-26T10:22:22;99582.66;;;6.01;95.07
84055;BME280;74141;51.504;7.122;2024-02-26T10:24:47;99589.47;;;6.05;95.37
84055;BME280;74141;51.504;7.122;2024-02-26T10:27:13;99589.41;;;6.07;94.99
84055;BME280;74141;51.504;7.122;2024-02-26T10:29:38;99589.22;;;6.11;95.06
84055;BME280;74141;51.504;7.122;2024-02-26T10:32:04;99589.09;;;6.14;94.96
84055;BME280;74141;51.504;7.122;2024-02-26T10:34:29;99596.03;;;6.15;94.48
84055;BME280;74141;51.504;7.122;2024-02-26T10:36:55;99602.88;;;6.19;94.62
84055;BME280;74141;51.504;7.122;2024-02-26T10:39:21;99595.66;;;6.24;92.68
84055;BME280;74141;51.504;7.122;2024-02-26T10:41:46;99605.94;;;6.29;94.07
84055;BME280;74141;51.504;7.122;2024-02-26T10:44:12;99631.81;;;6.37;94.87
84055;BME280;74141;51.504;7.122;2024-02-26T10:46:38;99638.59;;;6.41;93.92
84055;BME280;74141;51.504;7.122;2024-02-26T10:49:05;99651.44;;;6.47;94.65
84055;BME280;74141;51.504;7.122;2024-02-26T10:51:34;99648.75;;;6.48;93.74
84055;BME280;74141;51.504;7.122;2024-02-26T10:54:04;99640.22;;;6.45;94.41
84055;BME280;74141;51.504;7.122;2024-02-26T10:56:33;99641.66;;;6.52;95.11
84055;BME280;74141;51.504;7.122;2024-02-26T10:58:58;99632.81;;;6.54;95.15
84055;BME280;74141;51.504;7.122;2024-02-26T11:01:25;99634.47;;;6.57;95.00
84055;BME280;74141;51.504;7.122;2024-02-26T11:03:52;99646.41;;;6.64;95.64
84055;BME280;74141;51.504;7.122;2024-02-26T11:06:21;99638.34;;;6.68;94.65
84055;BME280;74141;51.504;7.122;2024-02-26T11:08:50;99650.47;;;6.71;94.81
84055;BME280;74141;51.504;7.122;2024-02-26T11:11:17;99648.53;;;6.76;96.10
84055;BME280;74141;51.504;7.122;2024-02-26T11:13:47;99656.25;;;6.79;94.04
84055;BME280;74141;51.504;7.122;2024-02-26T11:16:21;99652.69;;;6.80;93.83
84055;BME280;74141;51.504;7.122;2024-02-26T11:18:47;99647.47;;;6.80;93.42
84055;BME280;74141;51.504;7.122;2024-02-26T11:21:15;99658.63;;;6.85;94.50
84055;BME280;74141;51.504;7.122;2024-02-26T11:23:40;99663.66;;;6.89;92.49
84055;BME280;74141;51.504;7.122;2024-02-26T11:26:06;99659.13;;;6.93;92.43
84055;BME280;74141;51.504;7.122;2024-02-26T11:28:34;99655.47;;;6.97;91.12
84055;BME280;74141;51.504;7.122;2024-02-26T11:31:00;99662.53;;;6.95;90.76
84055;BME280;74141;51.504;7.122;2024-02-26T11:33:27;99653.69;;;6.97;91.93
84055;BME280;74141;51.504;7.122;2024-02-26T11:35:53;99663.31;;;6.97;90.46
84055;BME280;74141;51.504;7.122;2024-02-26T11:38:24;99661.50;;;6.99;91.04
84055;BME280;74141;51.504;7.122;2024-02-26T11:40:50;99662.28;;;7.01;91.01
84055;BME280;74141;51.504;7.122;2024-02-26T11:43:16;99660.31;;;7.06;90.42
84055;BME280;74141;51.504;7.122;2024-02-26T11:50:41;99669.50;;;7.36;88.60
84055;BME280;74141;51.504;7.122;2024-02-26T11:53:22;99679.44;;;7.48;88.56
84055;BME280;74141;51.504;7.122;2024-02-26T11:56:00;99668.03;;;7.49;86.77
84055;BME280;74141;51.504;7.122;2024-02-26T11:58:33;99675.63;;;7.55;86.91
84055;BME280;74141;51.504;7.122;2024-02-26T12:00:59;99670.78;;;7.46;86.06
84055;BME280;74141;51.504;7.122;2024-02-26T12:03:24;99674.81;;;7.54;87.80
84055;BME280;74141;51.504;7.122;2024-02-26T12:05:51;99674.56;;;7.59;88.19
84055;BME280;74141;51.504;7.122;2024-02-26T12:08:17;99670.66;;;7.49;85.52
84055;BME280;74141;51.504;7.122;2024-02-26T12:10:45;99674.59;;;7.39;85.58
84055;BME280;74141;51.504;7.122;2024-02-26T12:13:13;99670.56;;;7.32;86.64
84055;BME280;74141;51.504;7.122;2024-02-26T12:15:43;99680.25;;;7.30;87.09
84055;BME280;74141;51.504;7.122;2024-02-26T12:18:10;99676.69;;;7.31;85.79
84055;BME280;74141;51.504;7.122;2024-02-26T12:20:36;99663.25;;;7.38;87.45
84055;BME280;74141;51.504;7.122;2024-02-26T12:23:03;99684.09;;;7.41;86.58
84055;BME280;74141;51.504;7.122;2024-02-26T12:25:32;99671.47;;;7.51;87.46
84055;BME280;74141;51.504;7.122;2024-02-26T12:27:58;99681.81;;;7.54;86.60
84055;BME280;74141;51.504;7.122;2024-02-26T12:30:24;99689.41;;;7.60;86.08
84055;BME280;74141;51.504;7.122;2024-02-26T12:32:55;99698.03;;;7.62;86.41
84055;BME280;74141;51.504;7.122;2024-02-26T12:35:23;99707.94;;;7.55;86.17
84055;BME280;74141;51.504;7.122;2024-02-26T12:37:48;99721.75;;;7.59;86.22
84055;BME280;74141;51.504;7.122;2024-02-26T12:40:16;99699.88;;;7.60;85.11
84055;BME280;74141;51.504;7.122;2024-02-26T12:42:42;99709.72;;;7.55;84.16
84055;BME280;74141;51.504;7.122;2024-02-26T12:45:12;99692.34;;;7.52;84.52
84055;BME280;74141;51.504;7.122;2024-02-26T12:47:44;99706.81;;;7.61;84.44
84055;BME280;74141;51.504;7.122;2024-02-26T12:50:14;99696.66;;;7.53;84.04
84055;BME280;74141;51.504;7.122;2024-02-26T12:52:45;99706.94;;;7.58;84.38
84055;BME280;74141;51.504;7.122;2024-02-26T12:55:18;99711.63;;;7.51;82.42
84055;BME280;74141;51.504;7.122;2024-02-26T12:57:45;99721.00;;;7.57;84.21
84055;BME280;74141;51.504;7.122;2024-02-26T13:00:16;99716.88;;;7.51;83.47
84055;BME280;74141;51.504;7.122;2024-02-26T13:02:44;99721.13;;;7.54;84.08
84055;BME280;74141;51.504;7.122;2024-02-26T13:05:11;99723.66;;;7.55;83.37
84055;BME280;74141;51.504;7.122;2024-02-26T13:07:44;99740.03;;;7.60;83.27
84055;BME280;74141;51.504;7.122;2024-02-26T13:10:11;99745.34;;;7.59;82.59